U.S. Alerts
El Dorado Weather Logo
Placerville, Ca. Station Historical Data
[ Providing Data Since 6/22/2006 ]spacer

 
Daily Summary for September 01, 2026 Units:  English    Metric   Both
Daily Weekly Monthly Yearly Custom
  Current: High: Low: Average:
Temperature: 59.3 °F 75.5 °F 51.1 °F 61 °F
Dew Point: 47.9 °F 51.7 °F 47 °F 49 °F
Humidity: 66% 89.4% 38.9% 67%
Wind Speed: 0mph 7.3mph 0mph 1.2mph
Wind Gust: 0mph 14mph - -
WindCalm - - WSW
Pressure: 30.02 in 30.02 in 29.90 in -
Precipitation: 0.00 in      
Historical Graphs
 
 
Tabular Data for September 01, 2026
Time Temperature Dew Point Pressure Wind Wind Speed Wind Gust Humidity Rainfall Rate (Hourly) solar
00:04 54.5 °F 49.1 °F 29.90 in Calm   4 mph 82% 0.00 in 0 W/m2
00:09 54.4 °F 49.3 °F 29.90 in Calm     83% 0.00 in 0 W/m2
00:14 54.3 °F 49.2 °F 29.91 in Calm     83% 0.00 in 0 W/m2
00:19 54.3 °F 49.3 °F 29.91 in Calm     83.3% 0.00 in 0 W/m2
00:24 54.1 °F 49.1 °F 29.91 in Calm     83% 0.00 in 0 W/m2
00:29 54.1 °F 49.2 °F 29.91 in Calm     83.5% 0.00 in 0 W/m2
00:34 54 °F 49 °F 29.91 in Calm     83.2% 0.00 in 0 W/m2
00:39 53.9 °F 49.2 °F 29.91 in Calm     84% 0.00 in 0 W/m2
00:44 53.8 °F 49.1 °F 29.91 in Calm     84% 0.00 in 0 W/m2
00:49 53.7 °F 49 °F 29.91 in Calm     84% 0.00 in 0 W/m2
00:54 53.6 °F 49 °F 29.91 in Calm     84.6% 0.00 in 0 W/m2
00:59 53.4 °F 49 °F 29.91 in Calm     85% 0.00 in 0 W/m2
01:04 53.3 °F 48.9 °F 29.91 in Calm     85% 0.00 in 0 W/m2
01:09 53.2 °F 48.8 °F 29.91 in Calm     85% 0.00 in 0 W/m2
01:14 53.1 °F 48.8 °F 29.91 in Calm     85.5% 0.00 in 0 W/m2
01:19 53 °F 48.8 °F 29.91 in Calm     85.5% 0.00 in 0 W/m2
01:24 53 °F 48.9 °F 29.91 in Calm     86% 0.00 in 0 W/m2
01:29 52.9 °F 48.8 °F 29.91 in Calm     86% 0.00 in 0 W/m2
01:34 52.9 °F 48.8 °F 29.91 in Calm     86% 0.00 in 0 W/m2
01:39 52.8 °F 48.7 °F 29.91 in Calm     86% 0.00 in 0 W/m2
01:44 52.7 °F 48.6 °F 29.91 in Calm     86% 0.00 in 0 W/m2
01:49 52.6 °F 48.6 °F 29.91 in Calm     86.2% 0.00 in 0 W/m2
01:54 52.6 °F 48.5 °F 29.91 in Calm     86% 0.00 in 0 W/m2
01:59 52.6 °F 48.6 °F 29.91 in Calm     86.6% 0.00 in 0 W/m2
02:04 52.6 °F 48.8 °F 29.91 in SSW 0.6 mph 1.6 mph 87% 0.00 in 0 W/m2
02:09 52.6 °F 48.8 °F 29.90 in Calm   2 mph 87% 0.00 in 0 W/m2
02:14 52.5 °F 48.5 °F 29.90 in Calm     86.3% 0.00 in 0 W/m2
02:19 52.5 °F 48.5 °F 29.90 in Calm     86.5% 0.00 in 0 W/m2
02:24 52.4 °F 48.6 °F 29.90 in Calm     87% 0.00 in 0 W/m2
02:29 52.3 °F 48.5 °F 29.90 in Calm     87% 0.00 in 0 W/m2
02:34 52.2 °F 48.4 °F 29.90 in Calm     87% 0.00 in 0 W/m2
02:39 52.1 °F 48.3 °F 29.90 in Calm     87% 0.00 in 0 W/m2
02:44 51.9 °F 48.2 °F 29.90 in Calm     87% 0.00 in 0 W/m2
02:49 51.8 °F 48.1 °F 29.90 in Calm     87.2% 0.00 in 0 W/m2
02:54 51.7 °F 48.2 °F 29.90 in Calm     87.9% 0.00 in 0 W/m2
02:59 51.5 °F 48.1 °F 29.90 in Calm     88% 0.00 in 0 W/m2
03:04 51.4 °F 48 °F 29.90 in Calm     88% 0.00 in 0 W/m2
03:09 51.3 °F 47.9 °F 29.90 in Calm     88% 0.00 in 0 W/m2
03:14 51.3 °F 48 °F 29.90 in Calm     88.4% 0.00 in 0 W/m2
03:19 51.2 °F 47.9 °F 29.90 in Calm     88.3% 0.00 in 0 W/m2
03:24 51.2 °F 47.8 °F 29.90 in Calm     88% 0.00 in 0 W/m2
03:29 51.2 °F 47.8 °F 29.90 in Calm     88% 0.00 in 0 W/m2
03:34 51.1 °F 48 °F 29.90 in Calm     89% 0.00 in 0 W/m2
03:39 51.2 °F 48.1 °F 29.90 in Calm     89% 0.00 in 0 W/m2
03:44 51.2 °F 48.1 °F 29.90 in Calm     89% 0.00 in 0 W/m2
03:49 51.3 °F 48.3 °F 29.90 in Calm     89.3% 0.00 in 0 W/m2
03:54 51.4 °F 48.4 °F 29.90 in Calm     89.3% 0.00 in 0 W/m2
03:59 51.6 °F 48.6 °F 29.90 in Calm     89.4% 0.00 in 0 W/m2
04:04 51.7 °F 48.6 °F 29.90 in Calm     89.2% 0.00 in 0 W/m2
04:09 51.8 °F 48.7 °F 29.91 in Calm     89% 0.00 in 0 W/m2
04:14 51.9 °F 48.8 °F 29.91 in ESE 0.5 mph 0.3 mph 89% 0.00 in 0 W/m2
04:19 52 °F 48.9 °F 29.91 in Calm   2 mph 89% 0.00 in 0 W/m2
04:24 52.2 °F 48.9 °F 29.91 in Calm     88.5% 0.00 in 0 W/m2
04:29 52.3 °F 49 °F 29.91 in Calm     88.3% 0.00 in 0 W/m2
04:34 52.5 °F 49.1 °F 29.91 in Calm     88.3% 0.00 in 0 W/m2
04:39 52.6 °F 49.1 °F 29.91 in Calm     88% 0.00 in 0 W/m2
04:44 52.7 °F 49.2 °F 29.91 in Calm     88% 0.00 in 0 W/m2
04:49 52.8 °F 49.2 °F 29.92 in Calm     87.7% 0.00 in 0 W/m2
04:54 52.9 °F 49.1 °F 29.92 in Calm     87% 0.00 in 0 W/m2
04:59 53 °F 49.2 °F 29.92 in Calm     87% 0.00 in 0 W/m2
05:04 53 °F 49 °F 29.92 in Calm     86.3% 0.00 in 0 W/m2
05:09 53 °F 49.1 °F 29.92 in North 0.6 mph 0.8 mph 86.7% 0.00 in 0 W/m2
05:14 53 °F 48.9 °F 29.93 in Calm   2 mph 86% 0.00 in 0 W/m2
05:19 52.9 °F 48.9 °F 29.93 in NE 0.9 mph 0.3 mph 86.3% 0.00 in 0 W/m2
05:24 53 °F 49.1 °F 29.93 in Calm   2 mph 86.9% 0.00 in 0 W/m2
05:29 53 °F 49.1 °F 29.94 in Calm     86.7% 0.00 in 0 W/m2
05:34 53 °F 49 °F 29.94 in Calm     86.3% 0.00 in 0 W/m2
05:39 53 °F 48.9 °F 29.94 in Calm     86% 0.00 in 0 W/m2
05:44 53 °F 49.2 °F 29.94 in Calm     86.8% 0.00 in 0 W/m2
05:49 53 °F 48.9 °F 29.94 in Calm     86% 0.00 in 0 W/m2
05:54 53 °F 49 °F 29.93 in Calm     86.3% 0.00 in 0 W/m2
05:59 53.1 °F 49.1 °F 29.93 in Calm     86.5% 0.00 in 0 W/m2
06:04 53.2 °F 49.2 °F 29.93 in Calm     86.4% 0.00 in 0 W/m2
06:09 53.2 °F 49.2 °F 29.93 in Calm     86.4% 0.00 in 0 W/m2
06:14 53.3 °F 49.5 °F 29.93 in Calm     87% 0.00 in 0 W/m2
06:19 53.3 °F 49.2 °F 29.93 in Calm     86% 0.00 in 0 W/m2
06:24 53.3 °F 49.3 °F 29.93 in Calm     86.3% 0.00 in 0 W/m2
06:29 53.4 °F 49.5 °F 29.93 in Calm     86.7% 0.00 in 0 W/m2
06:34 53.5 °F 49.4 °F 29.93 in Calm     86.1% 0.00 in 0 W/m2
06:39 53.5 °F 49.5 °F 29.93 in Calm     86.2% 0.00 in 0 W/m2
06:44 53.6 °F 49.5 °F 29.94 in Calm     86% 0.00 in 0 W/m2
06:49 53.6 °F 49.5 °F 29.94 in Calm     86% 0.00 in 0 W/m2
06:54 53.6 °F 49.5 °F 29.94 in Calm     85.8% 0.00 in 7 W/m2
06:59 53.7 °F 49.4 °F 29.94 in Calm     85.3% 0.00 in 7 W/m2
07:04 53.7 °F 49.3 °F 29.94 in Calm     85.2% 0.00 in 7 W/m2
07:09 53.7 °F 49.3 °F 29.94 in Calm     85% 0.00 in 14 W/m2
07:14 53.7 °F 49.3 °F 29.94 in Calm     85% 0.00 in 18 W/m2
07:19 53.8 °F 49.4 °F 29.94 in Calm     85.2% 0.00 in 21 W/m2
07:24 53.8 °F 49.5 °F 29.94 in Calm     85.1% 0.00 in 21 W/m2
07:29 53.9 °F 49.5 °F 29.95 in Calm     85% 0.00 in 30 W/m2
07:34 53.9 °F 49.4 °F 29.95 in Calm     84.7% 0.00 in 30 W/m2
07:39 53.9 °F 49.3 °F 29.95 in Calm     84.2% 0.00 in 37 W/m2
07:44 54 °F 49.1 °F 29.96 in Calm     83.4% 0.00 in 39 W/m2
07:49 54 °F 48.7 °F 29.96 in Calm     82.1% 0.00 in 42 W/m2
07:54 54.1 °F 48.7 °F 29.96 in Calm     82% 0.00 in 44 W/m2
07:59 54.3 °F 48.9 °F 29.97 in East 1.9 mph 1.4 mph 82% 0.00 in 46 W/m2
08:04 54.4 °F 48.8 °F 29.97 in North 2.1 mph 4 mph 81.5% 0.00 in 54 W/m2
08:09 54.4 °F 48.8 °F 29.97 in Calm   4 mph 81.3% 0.00 in 62 W/m2
08:14 54.6 °F 49 °F 29.97 in Calm     81.4% 0.00 in 74 W/m2
08:19 54.7 °F 49 °F 29.97 in East 1.1 mph 0.2 mph 81% 0.00 in 74 W/m2
08:24 54.9 °F 49.1 °F 29.97 in Calm   4 mph 80.9% 0.00 in 74 W/m2
08:29 55 °F 49.1 °F 29.98 in NNW 1.6 mph 2 mph 80.3% 0.00 in 63 W/m2
08:34 55.2 °F 49 °F 29.98 in NNW 1.6 mph 4 mph 79.8% 0.00 in 76 W/m2
08:39 55.3 °F 48.9 °F 29.98 in Calm   4 mph 79.2% 0.00 in 98 W/m2
08:44 55.4 °F 48.9 °F 29.98 in ENE 1.4 mph 2.3 mph 78.5% 0.00 in 93 W/m2
08:49 55.6 °F 48.8 °F 29.98 in ENE 2 mph 4 mph 77.9% 0.00 in 93 W/m2
08:54 55.7 °F 48.7 °F 29.98 in NNW 1.2 mph 4 mph 77.3% 0.00 in 83 W/m2
08:59 55.8 °F 48.7 °F 29.99 in Calm   4 mph 77% 0.00 in 90 W/m2
09:04 55.9 °F 48.8 °F 29.99 in North 0.5 mph 0.2 mph 77% 0.00 in 93 W/m2
09:09 56 °F 48.9 °F 29.99 in Calm   2 mph 77% 0.00 in 95 W/m2
09:14 56.1 °F 48.5 °F 29.99 in WNW 2 mph 2 mph 75.7% 0.00 in 114 W/m2
09:19 56.2 °F 48.7 °F 29.99 in Calm   2 mph 76% 0.00 in 111 W/m2
09:24 56.3 °F 48.8 °F 29.99 in NE 2 mph 2.1 mph 75.9% 0.00 in 105 W/m2
09:29 56.4 °F 48.6 °F 29.99 in NNW 2.9 mph 4 mph 75% 0.00 in 107 W/m2
09:34 56.5 °F 48.7 °F 30.00 in NNW 2.7 mph 4.8 mph 75% 0.00 in 135 W/m2
09:39 56.6 °F 48.8 °F 30.00 in Calm   6 mph 75% 0.00 in 144 W/m2
09:44 56.8 °F 49.1 °F 30.00 in Calm     75.3% 0.00 in 151 W/m2
09:49 57 °F 49.1 °F 30.00 in ENE 1.9 mph 3 mph 74.7% 0.00 in 155 W/m2
09:54 57.3 °F 49.2 °F 30.00 in NW 2.9 mph 4 mph 74.2% 0.00 in 179 W/m2
09:59 57.4 °F 49.1 °F 30.00 in NNW 1.4 mph 6 mph 73.6% 0.00 in 220 W/m2
10:04 57.7 °F 49.2 °F 30.00 in NNW 0.9 mph 4 mph 73.3% 0.00 in 399 W/m2
10:09 58.2 °F 49.2 °F 30.00 in Calm   2 mph 72.1% 0.00 in 399 W/m2
10:14 58.6 °F 49.6 °F 30.00 in Calm     72% 0.00 in 295 W/m2
10:19 59.1 °F 49.9 °F 30.00 in East 0.8 mph 0.6 mph 71.4% 0.00 in 362 W/m2
10:24 59.6 °F 49.8 °F 30.00 in Calm   4 mph 70% 0.00 in 248 W/m2
10:29 59.9 °F 50.1 °F 30.00 in South 1.3 mph 1 mph 70% 0.00 in 283 W/m2
10:34 60.3 °F 50.1 °F 30.01 in North 1.1 mph 4 mph 69.1% 0.00 in 383 W/m2
10:39 60.6 °F 49.9 °F 30.01 in Calm   2 mph 67.6% 0.00 in 452 W/m2
10:44 61 °F 50.1 °F 30.01 in NW 4.2 mph 6 mph 67.2% 0.00 in 475 W/m2
10:49 61.1 °F 50 °F 30.01 in WSW 2.1 mph 8 mph 66.7% 0.00 in 475 W/m2
10:54 61.2 °F 50 °F 30.01 in SSE 0.4 mph 4 mph 66.5% 0.00 in 397 W/m2
10:59 61.4 °F 50 °F 30.00 in NNW 1.4 mph 2.8 mph 66.2% 0.00 in 796 W/m2
11:04 61.8 °F 50.1 °F 30.00 in NNW 2.7 mph 4 mph 65.7% 0.00 in 740 W/m2
11:09 62 °F 50.3 °F 30.00 in NNE 0.5 mph 4 mph 65.5% 0.00 in 740 W/m2
11:14 62.3 °F 50.3 °F 30.00 in NNW 2.4 mph 3.9 mph 64.7% 0.00 in 631 W/m2
11:19 62.6 °F 50 °F 30.00 in NW 2.9 mph 4 mph 63.5% 0.00 in 668 W/m2
11:24 62.9 °F 50.1 °F 30.00 in NNW 2.6 mph 7.4 mph 62.8% 0.00 in 724 W/m2
11:29 63.2 °F 50.2 °F 30.00 in NW 2.8 mph 9 mph 62.5% 0.00 in 617 W/m2
11:34 63.5 °F 50.1 °F 30.00 in NNE 1.2 mph 2 mph 61.7% 0.00 in 652 W/m2
11:39 63.8 °F 49.9 °F 30.00 in NW 1 mph 4 mph 60.5% 0.00 in 652 W/m2
11:44 64.1 °F 50 °F 30.00 in NW 3.4 mph 6.1 mph 60.2% 0.00 in 642 W/m2
11:49 64.6 °F 50.3 °F 30.00 in NNW 3.6 mph 8 mph 59.8% 0.00 in 726 W/m2
11:54 64.9 °F 50.1 °F 30.00 in North 3.1 mph 6 mph 58.8% 0.00 in 749 W/m2
11:59 64.8 °F 50.1 °F 30.00 in NNW 2.2 mph 6 mph 58.8% 0.00 in 749 W/m2
12:04 64.9 °F 50.1 °F 30.00 in NE 0.6 mph 4 mph 58.8% 0.00 in 777 W/m2
12:09 65.3 °F 50.6 °F 30.00 in NNW 2.6 mph 2.6 mph 59% 0.00 in 798 W/m2
12:14 65.8 °F 50.2 °F 30.00 in NW 4.1 mph 5.9 mph 57.3% 0.00 in 766 W/m2
12:19 66.1 °F 50.8 °F 30.00 in NNW 2.3 mph 6 mph 57.8% 0.00 in 745 W/m2
12:24 66.6 °F 50.6 °F 30.00 in SSE 2.4 mph 6 mph 56.3% 0.00 in 819 W/m2
12:29 67 °F 50.3 °F 30.00 in SW 1.6 mph 4 mph 54.9% 0.00 in 740 W/m2
12:34 67.4 °F 50.5 °F 29.99 in North 1.9 mph 4 mph 54.7% 0.00 in 596 W/m2
12:39 67.7 °F 50.4 °F 30.00 in NNW 1.8 mph 4 mph 54% 0.00 in 698 W/m2
12:44 67.9 °F 50.6 °F 29.99 in NW 2.4 mph 4.3 mph 54.2% 0.00 in 882 W/m2
12:49 68.2 °F 50.7 °F 29.99 in SSE 1 mph 6 mph 53.7% 0.00 in 831 W/m2
12:54 68.5 °F 50.7 °F 29.99 in ENE 2.4 mph 4 mph 52.9% 0.00 in 601 W/m2
12:59 68.6 °F 50.6 °F 29.99 in West 1.7 mph 6.7 mph 52.6% 0.00 in 830 W/m2
13:04 68.7 °F 49.9 °F 29.99 in South 3.3 mph 9 mph 51.1% 0.00 in 863 W/m2
13:09 69.4 °F 50.9 °F 29.99 in SE 2.1 mph 4 mph 51.8% 0.00 in 777 W/m2
13:14 69.8 °F 50.4 °F 29.99 in NNW 4.7 mph 4.9 mph 50.2% 0.00 in 868 W/m2
13:19 69.9 °F 50.6 °F 29.99 in SE 1.4 mph 8 mph 50.3% 0.00 in 868 W/m2
13:24 70.5 °F 51.7 °F 29.98 in ESE 1.5 mph 2 mph 51.4% 0.00 in 828 W/m2
13:29 71.3 °F 51.1 °F 29.98 in SW 4.8 mph 6.9 mph 48.9% 0.00 in 828 W/m2
13:34 71.4 °F 50.7 °F 29.98 in WSW 4.3 mph 8 mph 47.9% 0.00 in 575 W/m2
13:39 70.9 °F 50.4 °F 29.98 in West 2.8 mph 8 mph 48.4% 0.00 in 575 W/m2
13:44 70.5 °F 50.3 °F 29.98 in WNW 2 mph 4 mph 48.8% 0.00 in 510 W/m2
13:49 70.1 °F 50.2 °F 29.98 in North 2.2 mph 2.4 mph 49.3% 0.00 in 450 W/m2
13:54 69.9 °F 50 °F 29.98 in NW 3.6 mph 4 mph 49.3% 0.00 in 571 W/m2
13:59 69.5 °F 49.7 °F 29.98 in NW 2.8 mph 6 mph 49.4% 0.00 in 573 W/m2
14:04 69.5 °F 49.5 °F 29.98 in NNW 5 mph 6.5 mph 49% 0.00 in 462 W/m2
14:09 69.5 °F 49.6 °F 29.98 in NNW 2.8 mph 6 mph 49.2% 0.00 in 501 W/m2
14:14 69.7 °F 50.5 °F 29.98 in South 3.6 mph 6 mph 50.6% 0.00 in 475 W/m2
14:19 69.9 °F 50.2 °F 29.98 in WSW 2.8 mph 6 mph 49.7% 0.00 in 726 W/m2
14:24 70.1 °F 50.1 °F 29.98 in WNW 2.2 mph 4 mph 49% 0.00 in 631 W/m2
14:29 70.6 °F 50.5 °F 29.98 in NW 3.1 mph 10.2 mph 48.8% 0.00 in 777 W/m2
14:34 71.2 °F 50.5 °F 29.98 in South 7.1 mph 11.9 mph 47.9% 0.00 in 824 W/m2
14:39 71.3 °F 50.4 °F 29.97 in NW 1 mph 8 mph 47.6% 0.00 in 784 W/m2
14:44 71.6 °F 50.4 °F 29.97 in NW 3.5 mph 6.8 mph 47.2% 0.00 in 775 W/m2
14:49 71.9 °F 51 °F 29.97 in NW 0.6 mph 6 mph 47.9% 0.00 in 761 W/m2
14:54 72.6 °F 50.2 °F 29.97 in WNW 3.3 mph 4 mph 45.3% 0.00 in 745 W/m2
14:59 73.4 °F 50.4 °F 29.97 in North 3.7 mph 7.5 mph 44.4% 0.00 in 735 W/m2
15:04 73.6 °F 49.8 °F 29.97 in NNW 5 mph 8.1 mph 43.2% 0.00 in 735 W/m2
15:09 73.8 °F 50.5 °F 29.97 in West 0.8 mph 8 mph 44% 0.00 in 698 W/m2
15:14 74.3 °F 50.4 °F 29.97 in WNW 1.7 mph 4 mph 43% 0.00 in 686 W/m2
15:19 73.9 °F 50 °F 29.97 in West 2.6 mph 4.6 mph 43% 0.00 in 668 W/m2
15:24 73.6 °F 49.7 °F 29.97 in SSW 4.6 mph 8.4 mph 43% 0.00 in 657 W/m2
15:29 73.5 °F 49.1 °F 29.96 in WNW 5.2 mph 9 mph 42.1% 0.00 in 647 W/m2
15:34 73.7 °F 49.7 °F 29.96 in ESE 2.2 mph 8 mph 42.8% 0.00 in 635 W/m2
15:39 74 °F 49.8 °F 29.96 in SSE 3.1 mph 6.4 mph 42.5% 0.00 in 622 W/m2
15:44 74.1 °F 49 °F 29.96 in North 5.5 mph 8 mph 41.2% 0.00 in 610 W/m2
15:49 74 °F 48.6 °F 29.97 in NNW 2.8 mph 9 mph 40.7% 0.00 in 601 W/m2
15:54 73.9 °F 48.1 °F 29.96 in NNW 1.8 mph 6 mph 40.1% 0.00 in 587 W/m2
15:59 74.2 °F 48.3 °F 29.96 in NNW 2.1 mph 4.2 mph 40% 0.00 in 580 W/m2
16:04 74.7 °F 49.4 °F 29.96 in NW 3.3 mph 3.2 mph 41% 0.00 in 557 W/m2
16:09 74.8 °F 49.1 °F 29.96 in North 5 mph 6.9 mph 40.3% 0.00 in 547 W/m2
16:14 74.3 °F 48.5 °F 29.96 in NW 4.2 mph 6.1 mph 40.1% 0.00 in 536 W/m2
16:19 73.8 °F 49.3 °F 29.96 in NW 3 mph 6 mph 42.1% 0.00 in 522 W/m2
16:24 73.4 °F 48.8 °F 29.96 in ENE 7.3 mph 10 mph 41.9% 0.00 in 503 W/m2
16:29 73.2 °F 48.9 °F 29.96 in West 3.7 mph 12 mph 42.3% 0.00 in 492 W/m2
16:34 73.5 °F 49.3 °F 29.96 in North 1.7 mph 9 mph 42.5% 0.00 in 475 W/m2
16:39 74 °F 50.1 °F 29.95 in North 1.5 mph 4 mph 43% 0.00 in 466 W/m2
16:44 74.6 °F 50.5 °F 29.95 in Calm   4 mph 42.7% 0.00 in 446 W/m2
16:49 75.3 °F 49.7 °F 29.95 in NNE 1.4 mph 1.8 mph 40.6% 0.00 in 434 W/m2
16:54 75.5 °F 48.8 °F 29.95 in NNW 0.8 mph 4 mph 39% 0.00 in 418 W/m2
16:59 75.3 °F 48.6 °F 29.95 in NW 5.1 mph 8.9 mph 38.9% 0.00 in 406 W/m2
17:04 74.7 °F 48.6 °F 29.95 in NW 2.1 mph 14 mph 39.9% 0.00 in 388 W/m2
17:09 74.4 °F 49.1 °F 29.95 in WNW 2.4 mph 2 mph 40.9% 0.00 in 374 W/m2
17:14 74.3 °F 49.1 °F 29.95 in North 0.5 mph 4 mph 41% 0.00 in 359 W/m2
17:19 74 °F 48.8 °F 29.95 in NNW 5.2 mph 8.7 mph 41.1% 0.00 in 355 W/m2
17:24 73.2 °F 48.7 °F 29.95 in NNW 2.7 mph 9 mph 42% 0.00 in 332 W/m2
17:29 72.5 °F 48.1 °F 29.95 in NNW 2.2 mph 8 mph 42% 0.00 in 216 W/m2
17:34 71.9 °F 48 °F 29.95 in SE 3.7 mph 4.8 mph 42.7% 0.00 in 65 W/m2
17:39 71.2 °F 48 °F 29.95 in NNW 4.3 mph 8 mph 43.7% 0.00 in 63 W/m2
17:44 70.6 °F 47.5 °F 29.95 in West 0.7 mph 1.8 mph 43.8% 0.00 in 63 W/m2
17:49 70.2 °F 47.1 °F 29.95 in NNW 5 mph 8 mph 43.8% 0.00 in 47 W/m2
17:54 69.8 °F 47.2 °F 29.95 in NE 0.8 mph 8 mph 44.6% 0.00 in 47 W/m2
17:59 69.6 °F 47.6 °F 29.95 in NW 2.3 mph 4 mph 45.4% 0.00 in 62 W/m2
18:04 69.5 °F 47.4 °F 29.95 in SW 2.1 mph 4 mph 45.4% 0.00 in 54 W/m2
18:09 69.4 °F 47.1 °F 29.95 in NNW 2.1 mph 4 mph 45% 0.00 in 49 W/m2
18:14 69.3 °F 47 °F 29.95 in Calm   4 mph 45% 0.00 in 46 W/m2
18:19 69 °F 47.4 °F 29.95 in NNW 0.8 mph 4 mph 46% 0.00 in 44 W/m2
18:24 68.8 °F 47.2 °F 29.95 in South 0.8 mph 0.4 mph 46% 0.00 in 37 W/m2
18:29 68.6 °F 47.4 °F 29.95 in ESE 0.7 mph 4 mph 46.6% 0.00 in 79 W/m2
18:34 68.5 °F 47.2 °F 29.95 in NW 0.6 mph 4 mph 46.5% 0.00 in 76 W/m2
18:39 68.3 °F 47.3 °F 29.95 in SE 1.2 mph 2 mph 47.1% 0.00 in 30 W/m2
18:44 68 °F 47.5 °F 29.95 in WNW 0.6 mph 4 mph 47.8% 0.00 in 25 W/m2
18:49 67.7 °F 47.3 °F 29.95 in NW 1.1 mph 4 mph 48% 0.00 in 18 W/m2
18:54 67.3 °F 47 °F 29.95 in ENE 1.7 mph 2 mph 48.2% 0.00 in 16 W/m2
18:59 67 °F 47 °F 29.95 in West 0.5 mph 4 mph 48.6% 0.00 in 14 W/m2
19:04 66.8 °F 47 °F 29.95 in Calm   2 mph 49% 0.00 in 12 W/m2
19:09 66.5 °F 47.1 °F 29.96 in South 0.1 mph 0.2 mph 49.6% 0.00 in 9 W/m2
19:14 66.2 °F 47.1 °F 29.96 in WSW 1.4 mph 4 mph 50.2% 0.00 in 7 W/m2
19:19 66 °F 47.1 °F 29.96 in Calm   4 mph 50.7% 0.00 in 5 W/m2
19:24 65.7 °F 47.2 °F 29.96 in Calm     51.2% 0.00 in 0 W/m2
19:29 65.4 °F 47.5 °F 29.96 in Calm     52.3% 0.00 in 0 W/m2
19:34 65.1 °F 47.1 °F 29.96 in Calm     52.1% 0.00 in 0 W/m2
19:39 64.8 °F 47.3 °F 29.96 in Calm     53% 0.00 in 0 W/m2
19:44 64.5 °F 47.4 °F 29.97 in NNW 2.2 mph 3.8 mph 53.8% 0.00 in 0 W/m2
19:49 64.1 °F 47.5 °F 29.97 in North 2.2 mph 6 mph 54.7% 0.00 in 0 W/m2
19:54 63.7 °F 47.6 °F 29.97 in NNW 2.2 mph 4 mph 55.9% 0.00 in 0 W/m2
19:59 63.3 °F 47.7 °F 29.97 in SW 1.7 mph 4 mph 56.9% 0.00 in 0 W/m2
20:04 62.9 °F 47.8 °F 29.98 in North 3.1 mph 4.2 mph 57.8% 0.00 in 0 W/m2
20:09 62.5 °F 47.8 °F 29.98 in NNW 1.5 mph 9 mph 58.5% 0.00 in 0 W/m2
20:14 62.2 °F 47.7 °F 29.98 in WSW 1.8 mph 4 mph 59% 0.00 in 0 W/m2
20:19 61.8 °F 47.7 °F 29.99 in NNW 1 mph 2.1 mph 59.8% 0.00 in 0 W/m2
20:24 61.5 °F 47.8 °F 29.99 in NW 0.7 mph 4 mph 60.6% 0.00 in 0 W/m2
20:29 61.2 °F 47.9 °F 29.99 in NE 0.5 mph 4 mph 61.5% 0.00 in 0 W/m2
20:34 61 °F 47.9 °F 30.00 in Calm   2 mph 62% 0.00 in 0 W/m2
20:39 60.7 °F 47.7 °F 30.00 in NNE 0.1 mph 0.4 mph 62.3% 0.00 in 0 W/m2
20:44 60.5 °F 47.8 °F 30.00 in NNW 1.4 mph 2 mph 63.1% 0.00 in 0 W/m2
20:49 60.2 °F 48 °F 30.00 in Calm   4 mph 64% 0.00 in 0 W/m2
20:54 60 °F 47.8 °F 30.00 in Calm     64% 0.00 in 0 W/m2
20:59 59.8 °F 47.8 °F 30.01 in Calm     64.4% 0.00 in 0 W/m2
21:04 59.6 °F 47.8 °F 30.01 in Calm     65% 0.00 in 0 W/m2
21:09 59.5 °F 47.8 °F 30.01 in Calm     65.3% 0.00 in 0 W/m2
21:14 59.3 °F 47.9 °F 30.02 in Calm     66% 0.00 in 0 W/m2
El Dorado Weather
Compliments of Weather Underground - 2 mb






Contact Us Contact Us Thumbnail | Mobile Mobile Phone Thumbnail
Private Policy | Terms & Conds | Consent Preferences | Cookie Policy
Never base any life decisions on weather information from this site or anywhere over the Internet.
Site is dedicated to our Lord & Savior Jesus Christ | Random Quotes of Jesus

Copyright © 2026 El Dorado Weather, Inc. | Site Designed By:  Webmaster Danny